Time;durP1;ratioP1;P1;durP2;ratioP2;P2;SDS_P1;SDS_P2;PMS_P1;PMS_P2;Temp;Humidity;BMP_temperature;BMP_pressure;BME280_temperature;BME280_humidity;BME280_pressure;Samples;Min_cycle;Max_cycle;Signal;HPM_P1;HPM_P2
2021/12/09 00:01:38;;;;;;;14.30;8.18;;;2.40;99.90;;;;;;4971291;28;20050;-59
2021/12/09 00:04:13;;;;;;;13.60;7.57;;;2.40;99.90;;;;;;4967812;28;20129;-59
2021/12/09 00:30:32;;;;;;;16.23;8.75;;;2.20;99.90;;;;;;4987573;28;20058;-59
2021/12/09 00:33:11;;;;;;;12.13;7.97;;;2.20;99.90;;;;;;4980285;28;20046;-59
2021/12/09 00:35:48;;;;;;;13.43;8.45;;;2.10;99.90;;;;;;4996727;28;20121;-58
2021/12/09 00:38:35;;;;;;;;;;;2.10;99.90;;;;;;4992119;28;20516;-59
2021/12/09 00:41:12;;;;;;;18.05;8.60;;;2.10;99.90;;;;;;4971993;28;20395;-59
2021/12/09 00:43:52;;;;;;;13.23;8.32;;;2.10;99.90;;;;;;4994077;28;20124;-59
2021/12/09 00:46:24;;;;;;;18.15;9.18;;;2.10;99.90;;;;;;4977901;28;20374;-59
2021/12/09 00:49:03;;;;;;;17.65;8.93;;;2.10;99.90;;;;;;4977307;28;20069;-59
2021/12/09 00:51:36;;;;;;;;;;;2.00;99.90;;;;;;4975208;28;20034;-59
2021/12/09 00:54:15;;;;;;;19.83;9.25;;;2.00;99.90;;;;;;4992655;28;19917;-61
2021/12/09 00:56:48;;;;;;;14.73;9.70;;;2.00;99.90;;;;;;4958314;28;20058;-59
2021/12/09 00:59:27;;;;;;;15.57;10.05;;;2.10;99.90;;;;;;4985636;28;20046;-59
2021/12/09 01:02:00;;;;;;;;;;;2.10;99.90;;;;;;4992317;28;20580;-59
2021/12/09 01:04:39;;;;;;;20.52;9.77;;;2.00;99.90;;;;;;4993935;28;20300;-59
2021/12/09 01:07:13;;;;;;;20.40;10.52;;;2.00;99.90;;;;;;4996278;28;20179;-59
2021/12/09 01:09:52;;;;;;;18.75;9.82;;;2.00;99.90;;;;;;4979804;28;20046;-60
2021/12/09 01:12:25;;;;;;;21.13;10.07;;;2.00;99.90;;;;;;4978172;28;20476;-59
2021/12/09 01:15:08;;;;;;;21.13;10.65;;;2.00;99.90;;;;;;4984963;28;20500;-60
2021/12/09 01:17:41;;;;;;;16.80;9.88;;;2.10;99.90;;;;;;4979892;28;20140;-59
2021/12/09 01:20:25;;;;;;;15.52;9.60;;;2.10;99.90;;;;;;4986371;28;20042;-59
2021/12/09 01:23:02;;;;;;;16.95;10.73;;;2.10;99.90;;;;;;4997015;28;20068;-59
2021/12/09 01:25:49;;;;;;;24.85;10.75;;;2.10;99.90;;;;;;4994484;28;20080;-59
2021/12/09 01:28:35;;;;;;;17.23;10.63;;;2.10;99.90;;;;;;4976312;28;20086;-59
2021/12/09 01:31:08;;;;;;;21.50;10.88;;;2.10;99.90;;;;;;4977955;28;20089;-59
2021/12/09 01:33:47;;;;;;;22.42;10.93;;;2.10;99.90;;;;;;4969000;28;20060;-60
2021/12/09 01:36:20;;;;;;;23.73;11.57;;;2.10;99.90;;;;;;4978692;28;20077;-59
2021/12/09 01:39:01;;;;;;;20.48;10.48;;;2.10;99.90;;;;;;4976266;28;20077;-59
2021/12/09 01:41:32;;;;;;;18.25;11.40;;;2.10;99.90;;;;;;4982941;28;20116;-60
2021/12/09 01:44:13;;;;;;;19.25;11.05;;;2.10;99.90;;;;;;4997288;28;20042;-59
2021/12/09 01:46:45;;;;;;;17.85;11.05;;;2.00;99.90;;;;;;4982294;28;20124;-59
2021/12/09 01:49:25;;;;;;;22.70;11.43;;;2.00;99.90;;;;;;4984549;28;20050;-59
2021/12/09 01:51:58;;;;;;;;;;;2.00;99.90;;;;;;4983312;28;20045;-58
2021/12/09 01:54:38;;;;;;;23.08;11.52;;;2.00;99.90;;;;;;4996328;28;20315;-59
2021/12/09 01:57:12;;;;;;;19.27;11.55;;;2.00;99.90;;;;;;4976711;28;20044;-59
2021/12/09 01:59:52;;;;;;;21.77;11.57;;;2.00;99.90;;;;;;4986716;28;20042;-59
2021/12/09 02:02:24;;;;;;;20.88;12.43;;;2.00;99.90;;;;;;4966356;28;20128;-59
2021/12/09 02:05:05;;;;;;;22.23;12.27;;;2.00;99.90;;;;;;4992159;28;20046;-60
2021/12/09 02:07:37;;;;;;;21.58;11.88;;;2.00;99.90;;;;;;4994193;28;20046;-60
2021/12/09 02:10:18;;;;;;;21.58;12.52;;;1.90;99.90;;;;;;4993757;28;20535;-58
2021/12/09 02:12:54;;;;;;;21.13;12.23;;;1.90;99.90;;;;;;4982774;28;20054;-59
2021/12/09 02:15:35;;;;;;;23.38;12.80;;;1.90;99.90;;;;;;4976416;28;20058;-59
2021/12/09 02:18:15;;;;;;;21.95;12.35;;;1.90;99.90;;;;;;4979665;28;20137;-60
2021/12/09 02:21:13;;;;;;;29.50;13.27;;;1.90;99.90;;;;;;4978302;28;20080;-60
2021/12/09 02:23:45;;;;;;;27.73;12.57;;;1.90;99.90;;;;;;4994720;28;20045;-59
2021/12/09 02:26:11;;;;;;;18.52;12.68;;;1.90;99.90;;;;;;4982609;28;20050;-59
2021/12/09 02:28:40;;;;;;;22.67;12.15;;;1.90;99.90;;;;;;4981262;28;20116;-58
2021/12/09 02:31:05;;;;;;;23.80;14.20;;;1.80;99.90;;;;;;4980597;28;20112;-59
2021/12/09 02:33:32;;;;;;;18.50;12.90;;;1.80;99.90;;;;;;4993635;28;20128;-60
2021/12/09 02:35:58;;;;;;;22.30;13.45;;;1.80;99.90;;;;;;4980772;28;20043;-60
2021/12/09 02:38:25;;;;;;;22.75;13.63;;;1.80;99.90;;;;;;4981461;28;20108;-58
2021/12/09 02:40:51;;;;;;;19.63;12.55;;;1.80;99.90;;;;;;4981127;28;20045;-59
2021/12/09 02:43:25;;;;;;;18.92;12.43;;;1.70;99.90;;;;;;4993442;28;20462;-59
2021/12/09 02:45:52;;;;;;;23.17;12.95;;;1.70;99.90;;;;;;4984896;28;20101;-59
2021/12/09 02:48:21;;;;;;;21.10;13.10;;;1.70;99.90;;;;;;4984131;28;20071;-59
2021/12/09 02:50:47;;;;;;;22.70;13.65;;;1.70;99.90;;;;;;4993678;28;20058;-59
2021/12/09 02:53:13;;;;;;;24.65;13.23;;;1.60;99.90;;;;;;4996827;28;20129;-58
2021/12/09 02:55:39;;;;;;;22.67;12.82;;;1.70;99.90;;;;;;4997005;28;20150;-59
2021/12/09 02:58:05;;;;;;;21.35;13.27;;;1.60;99.90;;;;;;4975472;28;20057;-59
2021/12/09 03:00:31;;;;;;;27.75;13.40;;;1.70;99.90;;;;;;4995981;28;20046;-58
2021/12/09 03:02:58;;;;;;;23.15;13.73;;;1.70;99.90;;;;;;4984207;28;20047;-60
2021/12/09 03:05:26;;;;;;;23.33;14.07;;;1.60;99.90;;;;;;4996128;28;20050;-59
2021/12/09 03:07:52;;;;;;;27.75;14.05;;;1.60;99.90;;;;;;4983882;28;20065;-59
2021/12/09 03:10:25;;;;;;;19.40;13.45;;;1.60;99.90;;;;;;4984793;28;20101;-58
2021/12/09 03:12:53;;;;;;;;;;;1.60;99.90;;;;;;4985904;28;20128;-58
2021/12/09 03:15:19;;;;;;;25.65;13.90;;;1.60;99.90;;;;;;4968019;28;20343;-59
2021/12/09 03:17:47;;;;;;;23.80;14.05;;;1.60;99.90;;;;;;4995036;28;20094;-59
2021/12/09 03:20:14;;;;;;;23.90;14.02;;;1.60;99.90;;;;;;4994669;28;20057;-59
2021/12/09 03:22:42;;;;;;;26.35;14.70;;;1.60;99.90;;;;;;4965186;28;20046;-59
2021/12/09 03:25:10;;;;;;;26.85;14.20;;;1.60;99.90;;;;;;4981683;28;20058;-59
2021/12/09 03:27:37;;;;;;;26.38;13.05;;;1.50;99.90;;;;;;4998539;28;20108;-59
2021/12/09 03:30:05;;;;;;;26.23;13.82;;;1.60;99.90;;;;;;4997173;28;20057;-60
2021/12/09 03:32:30;;;;;;;31.38;15.38;;;1.50;99.90;;;;;;5000205;28;20038;-59
2021/12/09 03:34:56;;;;;;;31.13;14.02;;;1.60;99.90;;;;;;4978676;28;20039;-59
2021/12/09 03:37:24;;;;;;;22.05;13.98;;;1.50;99.90;;;;;;4966490;28;20042;-60
2021/12/09 03:39:52;;;;;;;26.85;14.68;;;1.60;99.90;;;;;;4972430;28;20053;-59
2021/12/09 03:42:20;;;;;;;25.15;15.05;;;1.50;99.90;;;;;;4998840;28;20155;-59
2021/12/09 03:44:48;;;;;;;21.50;14.75;;;1.50;99.90;;;;;;4978234;28;20207;-59
2021/12/09 03:47:17;;;;;;;21.65;14.13;;;1.50;99.90;;;;;;4987888;28;20113;-58
2021/12/09 03:49:43;;;;;;;24.25;13.70;;;1.50;99.90;;;;;;4998064;28;20042;-59
2021/12/09 03:52:11;;;;;;;24.23;14.68;;;1.50;99.90;;;;;;4988153;28;20056;-60
2021/12/09 03:54:38;;;;;;;21.42;14.35;;;1.50;99.90;;;;;;4985903;28;20048;-59
2021/12/09 03:57:05;;;;;;;23.45;14.75;;;1.50;99.90;;;;;;4987408;28;20539;-59
2021/12/09 03:59:31;;;;;;;24.80;15.30;;;1.50;99.90;;;;;;4981855;28;20049;-59
2021/12/09 04:01:57;;;;;;;24.88;15.38;;;1.50;99.90;;;;;;4969258;28;20061;-59
2021/12/09 04:04:23;;;;;;;29.73;15.20;;;1.50;99.90;;;;;;4997570;28;20664;-60
2021/12/09 04:06:49;;;;;;;25.13;14.65;;;1.50;99.90;;;;;;4981614;28;20404;-59
2021/12/09 04:09:16;;;;;;;23.25;15.65;;;1.40;99.90;;;;;;4988941;28;20077;-59
2021/12/09 04:11:43;;;;;;;24.48;14.68;;;1.40;99.90;;;;;;4988745;28;20402;-58
2021/12/09 04:14:09;;;;;;;32.15;15.15;;;1.40;99.90;;;;;;4998953;28;20045;-59
2021/12/09 04:16:36;;;;;;;28.85;14.77;;;1.40;99.90;;;;;;4987994;28;20113;-60
2021/12/09 04:19:04;;;;;;;29.35;15.13;;;1.40;99.90;;;;;;4979104;28;20052;-59
2021/12/09 04:21:29;;;;;;;24.90;14.95;;;1.40;99.90;;;;;;4987979;28;20045;-59
2021/12/09 04:23:56;;;;;;;26.70;15.07;;;1.40;99.90;;;;;;4979773;28;20391;-59
2021/12/09 04:26:22;;;;;;;25.23;15.43;;;1.30;99.90;;;;;;4985636;28;20042;-59
2021/12/09 04:28:48;;;;;;;28.60;14.50;;;1.30;99.90;;;;;;4998376;28;20461;-60
2021/12/09 04:31:14;;;;;;;29.95;15.38;;;1.30;99.90;;;;;;4998315;28;20105;-59
2021/12/09 04:33:42;;;;;;;27.23;15.45;;;1.40;99.90;;;;;;4997595;28;20049;-59
2021/12/09 04:36:08;;;;;;;25.80;15.35;;;1.30;99.90;;;;;;4971566;28;20049;-59
2021/12/09 04:38:34;;;;;;;32.35;14.90;;;1.30;99.90;;;;;;4997105;28;20042;-59
2021/12/09 04:41:01;;;;;;;34.65;15.27;;;1.30;99.90;;;;;;4980912;28;20042;-60
2021/12/09 04:43:26;;;;;;;27.17;15.57;;;1.30;99.90;;;;;;4987714;28;20133;-59
2021/12/09 04:45:52;;;;;;;23.35;15.30;;;1.30;99.90;;;;;;4997691;28;20121;-59
2021/12/09 04:48:18;;;;;;;27.02;16.38;;;1.30;99.90;;;;;;4979163;28;20053;-59
2021/12/09 04:50:44;;;;;;;31.27;15.52;;;1.30;99.90;;;;;;4986179;28;20132;-60
2021/12/09 04:53:11;;;;;;;28.83;15.75;;;1.30;99.90;;;;;;4997767;28;20050;-59
2021/12/09 04:55:37;;;;;;;26.13;14.73;;;1.30;99.90;;;;;;4978644;28;20128;-59
2021/12/09 04:58:07;;;;;;;30.83;15.25;;;1.30;99.90;;;;;;4997043;28;20053;-59
2021/12/09 05:00:37;;;;;;;27.45;16.02;;;1.30;99.90;;;;;;4996586;28;20646;-59
2021/12/09 05:03:13;;;;;;;27.10;15.75;;;1.30;99.90;;;;;;4986707;28;20077;-59
2021/12/09 05:05:47;;;;;;;24.80;15.20;;;1.30;99.90;;;;;;4997131;28;20046;-58
2021/12/09 05:08:15;;;;;;;26.38;14.82;;;1.30;99.90;;;;;;4997481;28;20128;-59
2021/12/09 05:13:27;;;;;;;24.00;15.65;;;1.30;99.90;;;;;;4980415;28;20046;-59
2021/12/09 05:15:54;;;;;;;38.10;15.30;;;1.30;99.90;;;;;;4993492;28;20078;-60
2021/12/09 05:18:21;;;;;;;26.35;15.63;;;1.20;99.90;;;;;;4994380;28;20116;-59
2021/12/09 05:20:47;;;;;;;31.58;15.63;;;1.20;99.90;;;;;;4995283;28;20042;-58
2021/12/09 05:23:15;;;;;;;33.15;16.27;;;1.20;99.90;;;;;;4966640;28;20069;-59
2021/12/09 05:25:42;;;;;;;30.15;15.70;;;1.20;99.90;;;;;;4993945;28;20124;-60
2021/12/09 05:28:09;;;;;;;25.77;14.88;;;1.20;99.90;;;;;;4981771;28;20141;-59
2021/12/09 05:32:07;;;;;;;33.90;16.10;;;1.20;99.90;;;;;;4974037;28;20476;-59
2021/12/09 05:33:24;;;;;;;31.90;15.85;;;1.20;99.90;;;;;;4983299;28;20638;-59
2021/12/09 05:35:50;;;;;;;26.08;15.80;;;1.20;99.90;;;;;;4979343;28;20041;-59
2021/12/09 05:38:16;;;;;;;28.10;16.83;;;1.10;99.90;;;;;;4993176;28;20164;-59
2021/12/09 05:40:42;;;;;;;31.55;16.15;;;1.10;99.90;;;;;;4983157;28;20125;-59
2021/12/09 05:43:08;;;;;;;28.27;15.30;;;1.10;99.90;;;;;;4977457;28;20205;-59
2021/12/09 05:45:33;;;;;;;31.83;15.88;;;1.10;99.90;;;;;;4983156;28;20479;-60
2021/12/09 05:47:59;;;;;;;30.13;17.05;;;1.10;99.90;;;;;;4980048;28;20618;-59
2021/12/09 05:50:25;;;;;;;28.17;16.10;;;1.10;99.90;;;;;;4985700;28;20139;-60
2021/12/09 05:52:51;;;;;;;27.42;17.10;;;1.10;99.90;;;;;;4984643;28;20432;-59
2021/12/09 05:55:17;;;;;;;25.45;15.55;;;1.10;99.90;;;;;;4996653;28;20050;-59
2021/12/09 05:57:42;;;;;;;29.77;16.77;;;1.10;99.90;;;;;;4997377;28;20093;-60
2021/12/09 06:00:09;;;;;;;29.58;16.88;;;1.10;99.90;;;;;;4982597;28;20053;-59
2021/12/09 06:02:35;;;;;;;28.33;15.88;;;1.00;99.90;;;;;;4963946;28;20120;-60
2021/12/09 06:05:05;;;;;;;32.80;16.35;;;1.00;99.90;;;;;;4994248;28;20076;-59
2021/12/09 06:07:31;;;;;;;29.77;16.52;;;1.00;99.90;;;;;;4977550;28;20115;-60
2021/12/09 06:09:59;;;;;;;31.13;16.25;;;1.00;99.90;;;;;;4950645;28;20484;-58
2021/12/09 06:12:24;;;;;;;29.00;15.82;;;1.00;99.90;;;;;;4992599;28;20046;-59
2021/12/09 06:14:50;;;;;;;27.27;16.60;;;1.00;99.90;;;;;;4995506;28;20617;-58
2021/12/09 06:17:16;;;;;;;24.23;15.48;;;1.00;99.90;;;;;;4983572;28;20058;-59
2021/12/09 06:19:41;;;;;;;25.20;15.55;;;0.90;99.90;;;;;;4965718;28;20796;-60
2021/12/09 06:22:07;;;;;;;31.90;16.63;;;0.90;99.90;;;;;;4977365;28;20042;-60
2021/12/09 06:24:33;;;;;;;29.60;15.88;;;0.90;99.90;;;;;;4995358;28;20049;-60
2021/12/09 06:26:59;;;;;;;30.10;17.10;;;0.90;99.90;;;;;;4984416;28;20129;-59
2021/12/09 06:29:25;;;;;;;30.02;16.30;;;0.90;99.90;;;;;;4962282;28;20702;-59
2021/12/09 06:31:51;;;;;;;25.40;15.98;;;0.90;99.90;;;;;;4994065;28;20125;-59
2021/12/09 06:34:17;;;;;;;30.70;16.10;;;0.80;99.90;;;;;;4964279;28;20060;-59
2021/12/09 06:36:43;;;;;;;25.33;16.15;;;0.80;99.90;;;;;;4993104;28;20050;-59
2021/12/09 06:39:09;;;;;;;26.80;15.88;;;0.80;99.90;;;;;;4995061;28;20104;-59
2021/12/09 06:41:35;;;;;;;31.40;17.40;;;0.80;99.90;;;;;;4962283;28;20046;-60
2021/12/09 06:44:02;;;;;;;28.80;16.77;;;0.80;99.90;;;;;;4950287;28;20186;-59
2021/12/09 06:46:28;;;;;;;29.90;16.42;;;0.80;99.90;;;;;;4961442;28;20471;-59
2021/12/09 06:48:54;;;;;;;29.35;16.55;;;0.80;99.90;;;;;;4977878;28;20404;-60
2021/12/09 06:51:20;;;;;;;27.98;16.35;;;0.70;99.90;;;;;;4992311;28;20058;-59
2021/12/09 06:53:46;;;;;;;30.33;17.75;;;0.70;99.90;;;;;;4984201;28;20096;-59
2021/12/09 06:56:12;;;;;;;29.55;16.67;;;0.70;99.90;;;;;;4961195;28;20119;-59
2021/12/09 06:58:37;;;;;;;37.25;16.73;;;0.70;99.90;;;;;;4981107;28;20056;-59
2021/12/09 07:01:05;;;;;;;38.10;17.65;;;0.70;99.90;;;;;;4969583;28;20045;-59
2021/12/09 07:03:32;;;;;;;33.63;17.83;;;0.80;99.90;;;;;;4972782;28;20056;-60
2021/12/09 07:06:01;;;;;;;32.65;17.75;;;0.80;99.90;;;;;;4981220;28;20056;-59
2021/12/09 07:08:27;;;;;;;30.85;17.63;;;0.80;99.90;;;;;;4987532;28;20496;-59
2021/12/09 07:10:53;;;;;;;33.60;17.95;;;0.80;99.90;;;;;;4982004;28;20053;-60
2021/12/09 07:13:19;;;;;;;31.75;16.85;;;0.80;99.90;;;;;;4996320;28;20440;-59
2021/12/09 07:15:45;;;;;;;29.20;16.83;;;0.80;99.90;;;;;;4996519;28;21237;-59
2021/12/09 07:18:11;;;;;;;35.85;17.70;;;0.80;99.90;;;;;;4949228;28;20042;-59
2021/12/09 07:20:37;;;;;;;34.97;18.08;;;0.80;99.90;;;;;;4979620;28;20504;-59
2021/12/09 07:23:03;;;;;;;29.75;16.27;;;0.80;99.90;;;;;;5000385;28;20064;-59
2021/12/09 07:25:29;;;;;;;31.38;16.73;;;0.80;99.90;;;;;;4998262;28;20077;-59
2021/12/09 07:27:55;;;;;;;29.60;17.60;;;0.70;99.90;;;;;;4989423;28;20050;-60
2021/12/09 07:30:23;;;;;;;34.10;17.70;;;0.80;99.90;;;;;;4982207;28;20046;-60
2021/12/09 07:32:50;;;;;;;28.70;17.83;;;0.80;99.90;;;;;;4998794;28;20050;-60
2021/12/09 07:35:17;;;;;;;30.73;17.38;;;0.80;99.90;;;;;;4981109;28;20115;-59
2021/12/09 07:37:43;;;;;;;32.03;17.58;;;0.80;99.90;;;;;;4981897;28;20121;-59
2021/12/09 07:40:13;;;;;;;28.38;16.80;;;0.80;99.90;;;;;;4984448;28;20042;-60
2021/12/09 07:42:38;;;;;;;28.60;17.20;;;0.80;99.90;;;;;;4986942;28;20057;-59
2021/12/09 07:45:06;;;;;;;28.92;16.98;;;0.80;99.90;;;;;;4986242;28;20054;-59
2021/12/09 07:47:32;;;;;;;30.83;17.42;;;0.80;99.90;;;;;;4972704;28;20529;-59
2021/12/09 07:49:59;;;;;;;29.15;16.63;;;0.80;99.90;;;;;;4986973;28;20129;-59
2021/12/09 07:52:25;;;;;;;36.30;17.17;;;0.80;99.90;;;;;;4980721;28;20465;-59
2021/12/09 07:54:51;;;;;;;27.40;17.27;;;0.80;99.90;;;;;;4976122;28;20049;-59
2021/12/09 07:57:17;;;;;;;29.65;16.67;;;0.80;99.90;;;;;;4994591;28;20042;-59
2021/12/09 07:59:43;;;;;;;26.73;17.10;;;0.80;99.90;;;;;;4979530;28;20106;-59
2021/12/09 08:02:09;;;;;;;34.85;17.63;;;0.80;99.90;;;;;;4986203;28;20045;-59
2021/12/09 08:04:35;;;;;;;35.10;16.73;;;0.80;99.90;;;;;;4984880;28;20054;-60
2021/12/09 08:07:02;;;;;;;31.52;17.23;;;0.80;99.90;;;;;;4998629;28;20467;-59
2021/12/09 08:09:27;;;;;;;28.25;17.48;;;0.80;99.90;;;;;;4978998;28;20396;-60
2021/12/09 08:11:54;;;;;;;30.30;17.13;;;0.80;99.90;;;;;;4981423;28;20045;-59
2021/12/09 08:14:20;;;;;;;27.20;16.42;;;0.80;99.90;;;;;;4977288;28;20052;-59
2021/12/09 08:16:56;;;;;;;31.67;16.75;;;0.80;99.90;;;;;;4978819;28;20074;-59
2021/12/09 08:19:22;;;;;;;30.83;17.15;;;0.80;99.90;;;;;;4983467;28;20042;-60
2021/12/09 08:21:48;;;;;;;27.02;15.82;;;0.80;99.90;;;;;;4996091;28;20416;-60
2021/12/09 08:24:14;;;;;;;31.02;16.95;;;0.80;99.90;;;;;;4995787;28;20091;-60
2021/12/09 08:26:40;;;;;;;31.00;16.48;;;0.80;99.90;;;;;;4980603;28;20188;-59
2021/12/09 08:29:06;;;;;;;30.52;16.83;;;0.80;99.90;;;;;;4994099;28;20107;-59
2021/12/09 08:31:34;;;;;;;29.50;16.95;;;0.80;99.90;;;;;;4969418;28;20228;-59
2021/12/09 08:34:01;;;;;;;32.63;17.02;;;0.80;99.90;;;;;;4984379;28;20076;-59
2021/12/09 08:36:27;;;;;;;32.15;16.55;;;0.90;99.90;;;;;;4978020;28;20050;-60
2021/12/09 08:38:53;;;;;;;30.80;16.42;;;0.80;99.90;;;;;;4995777;28;20060;-60
2021/12/09 08:41:19;;;;;;;31.98;17.42;;;0.80;99.90;;;;;;4984932;28;20046;-59
2021/12/09 08:43:48;;;;;;;38.75;17.55;;;0.90;99.90;;;;;;4982277;28;20054;-59
2021/12/09 08:46:15;;;;;;;29.85;15.95;;;0.80;99.90;;;;;;4969933;28;20077;-60
2021/12/09 08:48:41;;;;;;;35.80;16.67;;;0.90;99.90;;;;;;4979139;28;20042;-60
2021/12/09 08:51:08;;;;;;;30.67;16.52;;;0.90;99.90;;;;;;4964938;28;20075;-59
2021/12/09 08:53:34;;;;;;;25.20;16.10;;;0.90;99.90;;;;;;4995854;28;20384;-59
2021/12/09 08:56:00;;;;;;;32.78;16.60;;;1.00;99.90;;;;;;4984722;28;20477;-59
2021/12/09 08:58:28;;;;;;;29.55;15.77;;;1.00;99.90;;;;;;4995427;28;20406;-59
2021/12/09 09:00:57;;;;;;;24.50;14.60;;;1.00;99.90;;;;;;4995491;28;20045;-60
2021/12/09 09:03:23;;;;;;;35.58;16.75;;;1.00;99.90;;;;;;4996595;28;20053;-59
2021/12/09 09:05:50;;;;;;;28.58;15.93;;;1.10;99.90;;;;;;4995228;28;20182;-59
2021/12/09 09:08:16;;;;;;;32.95;16.58;;;1.10;99.90;;;;;;4977707;28;20044;-59
2021/12/09 09:10:45;;;;;;;26.67;15.30;;;1.10;99.90;;;;;;4979088;28;20439;-60
2021/12/09 09:13:13;;;;;;;30.45;15.63;;;1.10;99.90;;;;;;4993737;28;20141;-59
2021/12/09 09:15:40;;;;;;;33.08;16.65;;;1.20;99.90;;;;;;4997040;28;20038;-59
2021/12/09 09:18:06;;;;;;;38.92;17.27;;;1.20;99.90;;;;;;4983085;28;20132;-60
2021/12/09 09:20:37;;;;;;;29.90;16.17;;;1.20;99.90;;;;;;4982926;28;20408;-59
2021/12/09 09:23:03;;;;;;;30.83;15.20;;;1.30;99.90;;;;;;4965455;28;20049;-59
2021/12/09 09:25:29;;;;;;;32.50;15.35;;;1.30;99.90;;;;;;4985762;28;20113;-58
2021/12/09 09:28:00;;;;;;;28.98;15.27;;;1.30;99.90;;;;;;4994194;28;20065;-60
2021/12/09 09:30:34;;;;;;;31.40;14.93;;;1.40;99.90;;;;;;4982216;28;20068;-60
2021/12/09 09:33:02;;;;;;;28.27;14.85;;;1.40;99.90;;;;;;4951605;28;20433;-59
2021/12/09 09:35:29;;;;;;;26.52;14.38;;;1.40;99.90;;;;;;4977175;28;20668;-59
2021/12/09 09:37:54;;;;;;;30.38;15.30;;;1.50;99.90;;;;;;4947907;28;20085;-59
2021/12/09 09:40:28;;;;;;;22.00;14.85;;;1.50;99.90;;;;;;4981681;28;20117;-58
2021/12/09 09:43:13;;;;;;;29.38;14.77;;;1.60;99.90;;;;;;4996644;28;20054;-60
2021/12/09 09:45:39;;;;;;;26.60;15.00;;;1.60;99.90;;;;;;4977135;28;20054;-60
2021/12/09 09:48:11;;;;;;;29.45;14.73;;;1.60;99.90;;;;;;4995704;28;20104;-60
2021/12/09 09:50:37;;;;;;;28.10;14.05;;;1.70;99.90;;;;;;4984356;28;20527;-59
2021/12/09 09:53:03;;;;;;;31.50;14.75;;;1.70;99.90;;;;;;4977656;28;20058;-58
2021/12/09 09:55:29;;;;;;;24.52;13.65;;;1.90;99.90;;;;;;4984154;28;20056;-60
2021/12/09 09:57:55;;;;;;;27.05;14.27;;;1.90;99.90;;;;;;4994208;28;20054;-59
2021/12/09 10:00:21;;;;;;;29.30;14.27;;;1.90;99.90;;;;;;4992391;28;20049;-60
2021/12/09 10:02:52;;;;;;;28.05;13.70;;;2.00;99.90;;;;;;4963687;28;20077;-59
2021/12/09 10:05:22;;;;;;;23.13;13.27;;;2.10;99.90;;;;;;4952874;28;20077;-59
2021/12/09 10:07:50;;;;;;;26.55;13.95;;;2.20;99.90;;;;;;4959085;28;20084;-59
2021/12/09 10:10:16;;;;;;;24.25;13.45;;;2.20;99.90;;;;;;4976136;28;20049;-60
2021/12/09 10:12:59;;;;;;;25.10;12.73;;;2.30;99.90;;;;;;4984927;28;20489;-59
2021/12/09 10:15:35;;;;;;;21.67;11.77;;;2.40;99.90;;;;;;4994872;28;20057;-59
2021/12/09 10:18:01;;;;;;;20.75;12.40;;;2.50;99.90;;;;;;4982103;28;20513;-59
2021/12/09 10:20:51;;;;;;;21.90;11.77;;;2.50;99.90;;;;;;4993449;28;20044;-59
2021/12/09 10:23:33;;;;;;;24.70;12.55;;;2.60;99.90;;;;;;4986073;28;20053;-59
2021/12/09 10:26:21;;;;;;;20.27;11.98;;;2.70;99.90;;;;;;4978370;28;20054;-59
2021/12/09 10:28:52;;;;;;;20.73;10.95;;;2.80;99.90;;;;;;4995316;28;20513;-59
2021/12/09 10:31:33;;;;;;;21.05;11.73;;;2.90;99.90;;;;;;4986585;28;20133;-59
2021/12/09 10:34:28;;;;;;;19.80;11.40;;;3.00;99.90;;;;;;4998080;28;20508;-59
2021/12/09 10:36:49;;;;;;;21.88;10.80;;;3.00;99.90;;;;;;4997160;28;20073;-59
2021/12/09 10:39:29;;;;;;;24.90;12.00;;;3.10;99.90;;;;;;4969836;28;20076;-59
2021/12/09 10:41:58;;;;;;;20.80;11.13;;;3.10;99.90;;;;;;4980833;28;20603;-59
2021/12/09 10:44:50;;;;;;;20.33;10.90;;;3.20;99.90;;;;;;4986339;28;20515;-60
2021/12/09 10:47:24;;;;;;;23.70;10.55;;;3.30;99.90;;;;;;4986943;28;20058;-60
2021/12/09 10:50:05;;;;;;;19.77;11.65;;;3.30;99.90;;;;;;4996962;28;20057;-60
2021/12/09 10:52:42;;;;;;;20.88;10.90;;;3.20;99.90;;;;;;4980577;28;20045;-59
2021/12/09 10:55:14;;;;;;;23.60;11.13;;;3.20;99.90;;;;;;4999840;28;20046;-60
2021/12/09 10:57:41;;;;;;;18.17;10.95;;;3.20;99.90;;;;;;4982664;28;20050;-59
2021/12/09 11:00:18;;;;;;;20.23;11.13;;;3.10;99.90;;;;;;4981056;28;20430;-59
2021/12/09 11:03:31;;;;;;;31.60;12.00;;;3.20;99.90;;;;;;4979899;28;20565;-59
2021/12/09 11:05:59;;;;;;;;;;;3.20;99.90;;;;;;4909653;29;20060;-59
2021/12/09 11:08:32;;;;;;;23.92;12.88;;;3.10;99.90;;;;;;4989391;28;19952;-59
2021/12/09 11:11:12;;;;;;;25.88;13.25;;;3.10;99.90;;;;;;4992527;28;20065;-59
2021/12/09 11:13:54;;;;;;;32.65;13.23;;;3.10;99.90;;;;;;4986167;28;20182;-59
2021/12/09 11:16:30;;;;;;;23.10;13.55;;;3.10;99.90;;;;;;4986547;28;20058;-60
2021/12/09 11:19:10;;;;;;;29.80;14.00;;;3.10;99.90;;;;;;4998609;28;20551;-59
2021/12/09 11:21:42;;;;;;;25.50;13.30;;;3.00;99.90;;;;;;4983284;28;20043;-59
2021/12/09 11:24:13;;;;;;;30.27;14.55;;;3.10;99.90;;;;;;4988915;28;20073;-59
2021/12/09 11:26:59;;;;;;;24.90;14.50;;;3.00;99.90;;;;;;4994472;28;20084;-60
2021/12/09 11:29:32;;;;;;;25.23;12.95;;;3.00;99.90;;;;;;4993901;28;20061;-60
2021/12/09 11:34:41;;;;;;;21.00;12.55;;;2.90;99.90;;;;;;4981012;28;20050;-59
2021/12/09 11:37:22;;;;;;;24.35;13.68;;;2.90;99.90;;;;;;4982642;28;20622;-59
2021/12/09 11:39:48;;;;;;;28.70;13.63;;;2.90;99.90;;;;;;4987845;28;20068;-59
2021/12/09 11:42:29;;;;;;;23.63;13.60;;;2.90;99.90;;;;;;4987551;28;20583;-60
2021/12/09 11:44:55;;;;;;;27.63;13.00;;;2.80;99.90;;;;;;4995299;28;20044;-59
2021/12/09 11:47:21;;;;;;;28.10;14.50;;;2.90;99.90;;;;;;4969687;28;20054;-59
2021/12/09 11:49:47;;;;;;;26.48;13.25;;;2.80;99.90;;;;;;4961869;28;20050;-59
2021/12/09 11:52:15;;;;;;;29.92;14.38;;;2.80;99.90;;;;;;4996373;28;20129;-59
2021/12/09 11:54:49;;;;;;;30.55;13.75;;;2.80;99.90;;;;;;4995825;28;20515;-60
2021/12/09 12:07:11;;;;;;;33.88;15.43;;;2.80;99.90;;;;;;4996580;28;20112;-59
2021/12/09 12:12:56;;;;;;;32.85;15.40;;;2.80;99.90;;;;;;4980387;28;20053;-59
2021/12/09 12:40:27;;;;;;;33.92;14.88;;;2.90;99.90;;;;;;4988080;28;20681;-59
2021/12/09 12:43:02;;;;;;;31.38;15.60;;;2.90;99.90;;;;;;4985786;28;20069;-59
2021/12/09 12:51:12;;;;;;;27.42;14.77;;;2.90;99.90;;;;;;4981665;28;20053;-60
2021/12/09 12:53:44;;;;;;;28.00;15.77;;;2.90;99.90;;;;;;4982812;28;20073;-60
2021/12/09 12:56:14;;;;;;;28.90;15.10;;;2.90;99.90;;;;;;4987370;28;20041;-60
2021/12/09 12:59:14;;;;;;;35.33;14.88;;;2.90;99.90;;;;;;4975586;28;20050;-60
2021/12/09 13:02:09;;;;;;;28.73;14.98;;;2.90;99.90;;;;;;4983152;28;20431;-60
2021/12/09 13:13:21;;;;;;;30.08;16.23;;;3.00;99.90;;;;;;4980020;28;20508;-60
2021/12/09 13:19:10;;;;;;;30.33;16.13;;;3.00;99.90;;;;;;4989452;28;20137;-60
2021/12/09 13:21:57;;;;;;;33.40;16.25;;;3.10;99.90;;;;;;4990425;28;20101;-59
2021/12/09 13:24:41;;;;;;;35.72;16.92;;;3.10;99.90;;;;;;4992310;28;20068;-59
2021/12/09 13:33:38;;;;;;;34.40;16.25;;;3.10;99.90;;;;;;4977380;28;20038;-58
2021/12/09 13:36:31;;;;;;;31.55;16.73;;;3.20;99.90;;;;;;4994185;28;20141;-58
2021/12/09 13:47:35;;;;;;;33.15;17.13;;;3.20;99.90;;;;;;4995055;28;20719;-58
2021/12/09 13:55:20;;;;;;;32.70;17.13;;;3.20;99.90;;;;;;4991090;28;20440;-59
2021/12/09 13:57:50;;;;;;;31.02;16.25;;;3.20;99.90;;;;;;4992946;28;20049;-58
2021/12/09 14:00:25;;;;;;;33.03;17.60;;;3.20;99.90;;;;;;4981232;28;20116;-58
2021/12/09 14:02:54;;;;;;;31.90;16.60;;;3.20;99.90;;;;;;4982632;28;20038;-57
2021/12/09 14:05:21;;;;;;;33.60;17.05;;;3.20;99.90;;;;;;4991158;28;22235;-59
2021/12/09 14:07:57;;;;;;;36.67;17.27;;;3.20;99.90;;;;;;4991548;28;20057;-59
2021/12/09 14:10:28;;;;;;;34.53;16.65;;;3.20;99.90;;;;;;4992697;28;20523;-57
2021/12/09 14:13:00;;;;;;;34.55;17.60;;;3.20;99.90;;;;;;4992274;28;20162;-58
2021/12/09 14:15:39;;;;;;;35.95;17.25;;;3.20;99.90;;;;;;4990584;28;20050;-58
2021/12/09 14:18:15;;;;;;;37.80;18.08;;;3.20;99.90;;;;;;4994074;28;20361;-59
2021/12/09 14:20:41;;;;;;;33.67;16.98;;;3.20;99.90;;;;;;4992329;28;20409;-59
2021/12/09 14:23:08;;;;;;;34.67;18.33;;;3.20;99.90;;;;;;4996648;28;20113;-59
2021/12/09 14:25:36;;;;;;;32.90;18.38;;;3.20;99.90;;;;;;4995417;28;20100;-59
2021/12/09 14:28:10;;;;;;;38.67;18.42;;;3.20;99.90;;;;;;4991016;28;20065;-59
2021/12/09 14:30:37;;;;;;;37.80;17.85;;;3.20;99.90;;;;;;4992563;28;20047;-58
2021/12/09 14:33:03;;;;;;;33.40;17.30;;;3.20;99.90;;;;;;4994230;28;20480;-59
2021/12/09 14:35:43;;;;;;;39.53;17.27;;;3.20;99.90;;;;;;4993509;28;20046;-59
2021/12/09 14:38:10;;;;;;;38.00;17.70;;;3.20;99.90;;;;;;4994779;28;20041;-59
2021/12/09 14:40:43;;;;;;;37.53;18.58;;;3.20;99.90;;;;;;4993458;28;20042;-58